Time;durP1;ratioP1;P1;durP2;ratioP2;P2;SDS_P1;SDS_P2;PMS_P1;PMS_P2;Temp;Humidity;BMP_temperature;BMP_pressure;BME280_temperature;BME280_humidity;BME280_pressure;Samples;Min_cycle;Max_cycle;Signal;HPM_P1;HPM_P2
2021/12/09 00:00:13;;;;;;;2.40;1.30;;;21.90;30.00;;;;;;5054919;28;20047;-49
2021/12/09 00:02:39;;;;;;;2.40;1.40;;;21.80;30.00;;;;;;5046597;28;20025;-51
2021/12/09 00:05:06;;;;;;;2.20;1.25;;;21.90;30.00;;;;;;5036724;28;20021;-50
2021/12/09 00:07:32;;;;;;;1.45;1.02;;;21.80;30.00;;;;;;5040076;28;20487;-52
2021/12/09 00:10:00;;;;;;;2.55;1.17;;;21.80;30.00;;;;;;5054900;28;20115;-48
2021/12/09 00:12:27;;;;;;;2.08;1.08;;;21.80;30.00;;;;;;5054886;28;20039;-46
2021/12/09 00:14:53;;;;;;;2.15;1.10;;;21.80;30.00;;;;;;5056748;28;20025;-50
2021/12/09 00:17:19;;;;;;;1.58;1.17;;;21.80;30.00;;;;;;5054312;28;20041;-50
2021/12/09 00:19:45;;;;;;;2.50;1.20;;;21.80;30.00;;;;;;5055808;28;20033;-48
2021/12/09 00:22:11;;;;;;;2.42;1.20;;;21.80;30.00;;;;;;5054311;28;20017;-48
2021/12/09 00:24:37;;;;;;;2.00;1.20;;;21.70;30.00;;;;;;5056528;28;20053;-51
2021/12/09 00:27:04;;;;;;;3.20;1.33;;;21.80;30.00;;;;;;5039035;28;20029;-50
2021/12/09 00:29:30;;;;;;;2.45;1.00;;;21.80;30.00;;;;;;5028695;28;20355;-46
2021/12/09 00:31:56;;;;;;;2.38;1.17;;;21.70;30.00;;;;;;5055385;28;20155;-48
2021/12/09 00:34:31;;;;;;;1.75;0.90;;;21.70;30.00;;;;;;5055458;28;20052;-50
2021/12/09 00:37:10;;;;;;;1.95;1.10;;;21.80;30.00;;;;;;5039630;28;20518;-53
2021/12/09 00:39:36;;;;;;;2.00;0.80;;;21.70;29.90;;;;;;5038184;28;20048;-48
2021/12/09 00:42:02;;;;;;;2.42;1.17;;;21.70;30.00;;;;;;5055338;28;20029;-49
2021/12/09 00:44:28;;;;;;;1.67;1.10;;;21.70;30.00;;;;;;5055762;28;20025;-50
2021/12/09 00:46:54;;;;;;;1.67;1.00;;;21.70;30.00;;;;;;5040374;28;20116;-51
2021/12/09 00:49:20;;;;;;;2.33;0.90;;;21.70;30.00;;;;;;5046608;28;20483;-49
2021/12/09 00:51:46;;;;;;;1.85;1.08;;;21.70;29.90;;;;;;5041576;28;20117;-46
2021/12/09 00:54:12;;;;;;;2.70;1.38;;;21.70;30.00;;;;;;5049315;28;20021;-48
2021/12/09 00:56:37;;;;;;;1.63;0.88;;;21.70;29.90;;;;;;4999825;28;20049;-51
2021/12/09 00:59:03;;;;;;;2.38;1.00;;;21.70;29.90;;;;;;5002930;28;20030;-55
2021/12/09 01:01:29;;;;;;;2.03;1.15;;;21.60;29.90;;;;;;5014644;28;20026;-56
2021/12/09 01:03:55;;;;;;;6.63;1.30;;;21.60;29.90;;;;;;5014701;28;20030;-49
2021/12/09 01:06:21;;;;;;;1.30;0.90;;;21.70;29.90;;;;;;5015192;28;20022;-54
2021/12/09 01:08:47;;;;;;;2.67;1.30;;;21.60;29.80;;;;;;5014815;28;20025;-48
2021/12/09 01:11:14;;;;;;;1.63;0.80;;;21.70;29.90;;;;;;4998215;28;20426;-51
2021/12/09 01:13:41;;;;;;;1.95;1.00;;;21.70;29.90;;;;;;5004879;28;20117;-51
2021/12/09 01:16:09;;;;;;;1.77;1.10;;;21.60;29.80;;;;;;5014704;28;20072;-54
2021/12/09 01:18:36;;;;;;;2.17;1.10;;;21.60;29.80;;;;;;5015298;28;20101;-53
2021/12/09 01:21:03;;;;;;;2.03;1.13;;;21.60;29.80;;;;;;5013892;28;20338;-49
2021/12/09 01:23:29;;;;;;;2.97;1.10;;;21.60;29.80;;;;;;5003503;28;20165;-50
2021/12/09 01:26:01;;;;;;;1.55;0.90;;;21.60;29.80;;;;;;5001198;28;20109;-52
2021/12/09 01:28:30;;;;;;;2.97;1.20;;;21.60;29.80;;;;;;5011238;28;20033;-52
2021/12/09 01:31:05;;;;;;;1.80;1.10;;;21.60;29.80;;;;;;5001085;28;20037;-48
2021/12/09 01:33:34;;;;;;;1.40;1.05;;;21.60;29.80;;;;;;5007258;28;20025;-54
2021/12/09 01:36:00;;;;;;;1.35;0.90;;;21.60;29.80;;;;;;5000475;28;20042;-50
2021/12/09 01:38:30;;;;;;;2.53;1.27;;;21.60;29.80;;;;;;5005533;28;20021;-52
2021/12/09 01:40:58;;;;;;;2.60;1.00;;;21.60;29.80;;;;;;5013109;28;20030;-54
2021/12/09 01:43:24;;;;;;;1.85;0.90;;;21.50;29.80;;;;;;5006648;28;20044;-52
2021/12/09 01:46:07;;;;;;;2.10;1.00;;;21.50;29.70;;;;;;5014926;28;20045;-49
2021/12/09 01:48:33;;;;;;;2.40;0.98;;;21.60;29.80;;;;;;5014373;28;20051;-48
2021/12/09 01:50:59;;;;;;;1.55;1.10;;;21.50;29.80;;;;;;5014599;28;20022;-49
2021/12/09 01:53:25;;;;;;;1.42;1.10;;;21.50;29.80;;;;;;5013944;28;20034;-48
2021/12/09 01:55:51;;;;;;;1.90;1.08;;;21.50;29.80;;;;;;5023877;28;20099;-56
2021/12/09 01:58:17;;;;;;;2.83;0.90;;;21.50;29.80;;;;;;5044204;28;20494;-56
2021/12/09 02:00:43;;;;;;;1.90;0.88;;;21.50;29.90;;;;;;5053822;28;20033;-53
2021/12/09 02:03:09;;;;;;;1.73;0.93;;;21.50;29.90;;;;;;5053154;28;20353;-52
2021/12/09 02:05:40;;;;;;;1.40;0.90;;;21.50;29.90;;;;;;5036124;28;20052;-52
2021/12/09 02:08:13;;;;;;;1.25;0.98;;;21.50;29.80;;;;;;5054323;28;20039;-53
2021/12/09 02:10:41;;;;;;;1.80;0.98;;;21.50;29.80;;;;;;5048890;28;20068;-47
2021/12/09 02:13:07;;;;;;;1.95;1.17;;;21.50;29.80;;;;;;5050237;28;20078;-49
2021/12/09 02:15:33;;;;;;;1.77;0.85;;;21.50;29.80;;;;;;5053725;28;20021;-48
2021/12/09 02:18:03;;;;;;;2.17;0.95;;;21.40;29.70;;;;;;5054408;28;20044;-55
2021/12/09 02:20:32;;;;;;;1.73;0.98;;;21.40;29.70;;;;;;5051765;28;20041;-48
2021/12/09 02:22:58;;;;;;;1.42;0.95;;;21.40;29.70;;;;;;5053952;28;20025;-49
2021/12/09 02:25:24;;;;;;;2.40;1.00;;;21.40;29.70;;;;;;5036301;28;20340;-49
2021/12/09 02:27:50;;;;;;;1.85;0.93;;;21.40;29.70;;;;;;5052658;28;20043;-51
2021/12/09 02:30:17;;;;;;;0.90;0.80;;;21.40;29.60;;;;;;5053933;28;20021;-47
2021/12/09 02:32:43;;;;;;;1.83;0.80;;;21.40;29.90;;;;;;5056284;28;20429;-52
2021/12/09 02:35:10;;;;;;;1.15;0.80;;;21.40;29.60;;;;;;5057276;28;20118;-48
2021/12/09 02:37:36;;;;;;;1.00;0.70;;;21.40;29.60;;;;;;5058570;28;20044;-49
2021/12/09 02:40:05;;;;;;;2.00;1.17;;;21.40;29.60;;;;;;5057053;28;20041;-50
2021/12/09 02:42:32;;;;;;;1.83;0.93;;;21.40;29.50;;;;;;5057521;28;20035;-47
2021/12/09 02:44:58;;;;;;;3.47;1.58;;;21.40;29.60;;;;;;5039236;28;20329;-52
2021/12/09 02:47:25;;;;;;;1.95;1.00;;;21.40;29.50;;;;;;5058278;28;20029;-52
2021/12/09 02:49:51;;;;;;;1.23;0.90;;;21.40;29.50;;;;;;5047965;28;20403;-48
2021/12/09 02:52:17;;;;;;;2.50;1.10;;;21.40;29.50;;;;;;5037722;28;20056;-51
2021/12/09 02:54:43;;;;;;;1.13;0.93;;;21.40;29.50;;;;;;5048293;28;20025;-50
2021/12/09 02:57:09;;;;;;;1.50;0.80;;;21.40;29.50;;;;;;5057570;28;20044;-50
2021/12/09 02:59:35;;;;;;;1.65;1.00;;;21.30;29.50;;;;;;5056366;28;20041;-51
2021/12/09 03:02:04;;;;;;;1.75;1.00;;;21.30;29.50;;;;;;5057549;28;20090;-54
2021/12/09 03:04:52;;;;;;;2.00;1.05;;;21.30;29.50;;;;;;5051579;28;20037;-46
2021/12/09 03:07:30;;;;;;;1.58;1.00;;;21.30;29.40;;;;;;5039052;28;20079;-54
2021/12/09 03:10:00;;;;;;;1.85;0.90;;;21.30;29.50;;;;;;5044204;28;20079;-52
2021/12/09 03:12:32;;;;;;;1.95;0.90;;;21.30;29.50;;;;;;5037600;28;20029;-51
2021/12/09 03:14:59;;;;;;;2.10;1.00;;;21.30;29.40;;;;;;5039053;28;20451;-52
2021/12/09 03:17:25;;;;;;;1.27;0.60;;;21.30;29.40;;;;;;5046332;28;20025;-47
2021/12/09 03:19:53;;;;;;;1.10;0.80;;;21.30;29.40;;;;;;5049868;28;20028;-51
2021/12/09 03:22:20;;;;;;;1.95;1.10;;;21.30;29.40;;;;;;5052494;28;20021;-52
2021/12/09 03:24:46;;;;;;;1.77;0.98;;;21.30;29.40;;;;;;5046831;28;20087;-48
2021/12/09 03:27:12;;;;;;;1.42;1.02;;;21.30;29.40;;;;;;5040925;28;20021;-49
2021/12/09 03:29:40;;;;;;;2.03;1.08;;;21.20;29.40;;;;;;5057250;28;20428;-51
2021/12/09 03:32:09;;;;;;;1.92;0.70;;;21.30;29.40;;;;;;5052072;28;20048;-48
2021/12/09 03:34:38;;;;;;;1.17;0.88;;;21.20;29.40;;;;;;5048054;28;20154;-50
2021/12/09 03:37:09;;;;;;;1.45;0.90;;;21.20;29.40;;;;;;5056341;28;20107;-55
2021/12/09 03:39:38;;;;;;;1.58;0.80;;;21.20;29.40;;;;;;5057109;28;20328;-48
2021/12/09 03:42:06;;;;;;;4.35;0.90;;;21.20;29.40;;;;;;5049822;28;20439;-48
2021/12/09 03:44:32;;;;;;;2.08;0.90;;;21.20;29.40;;;;;;5056076;28;20450;-51
2021/12/09 03:47:01;;;;;;;1.80;1.10;;;21.20;29.40;;;;;;5055711;28;20028;-52
2021/12/09 03:49:27;;;;;;;1.02;0.80;;;21.20;29.40;;;;;;5055553;28;20028;-50
2021/12/09 03:51:53;;;;;;;1.30;0.90;;;21.20;29.30;;;;;;5056309;28;20090;-50
2021/12/09 03:54:20;;;;;;;1.27;0.75;;;21.20;29.40;;;;;;5054916;28;20033;-52
2021/12/09 03:56:46;;;;;;;1.50;1.10;;;21.20;29.40;;;;;;5056622;28;20098;-45
2021/12/09 03:59:13;;;;;;;2.28;0.93;;;21.20;29.30;;;;;;5048433;28;20447;-49
2021/12/09 04:01:41;;;;;;;1.58;0.90;;;21.20;29.30;;;;;;5056068;28;20036;-47
2021/12/09 04:04:08;;;;;;;1.90;1.02;;;21.20;29.30;;;;;;5055672;28;20021;-52
2021/12/09 04:06:35;;;;;;;1.90;1.10;;;21.20;29.30;;;;;;5055059;28;20037;-49
2021/12/09 04:09:02;;;;;;;1.58;0.95;;;21.10;29.30;;;;;;5042643;28;20021;-50
2021/12/09 04:11:28;;;;;;;2.55;1.00;;;21.10;29.30;;;;;;5055197;28;20436;-50
2021/12/09 04:13:54;;;;;;;0.80;0.60;;;21.10;29.20;;;;;;5055763;28;20071;-47
2021/12/09 04:16:21;;;;;;;1.30;0.90;;;21.10;29.30;;;;;;5054809;28;20056;-52
2021/12/09 04:18:47;;;;;;;1.83;0.90;;;21.10;29.30;;;;;;5048999;28;20090;-53
2021/12/09 04:21:14;;;;;;;1.80;0.80;;;21.10;29.30;;;;;;5053675;28;20025;-52
2021/12/09 04:23:40;;;;;;;1.70;0.90;;;21.10;29.30;;;;;;5053983;28;20033;-48
2021/12/09 04:26:06;;;;;;;3.05;0.90;;;21.10;29.30;;;;;;5038521;28;20032;-47
2021/12/09 04:28:33;;;;;;;1.38;0.73;;;21.10;29.30;;;;;;5055096;28;20025;-47
2021/12/09 04:30:59;;;;;;;1.40;0.73;;;21.10;29.30;;;;;;5055648;28;20348;-47
2021/12/09 04:33:26;;;;;;;1.90;0.80;;;21.10;29.30;;;;;;5047820;28;20321;-53
2021/12/09 04:35:52;;;;;;;1.30;0.70;;;21.10;29.40;;;;;;5055034;28;20509;-55
2021/12/09 04:38:18;;;;;;;1.45;0.70;;;21.10;29.40;;;;;;5055491;28;20017;-55
2021/12/09 04:40:44;;;;;;;1.55;0.80;;;21.10;29.40;;;;;;5051741;28;20459;-54
2021/12/09 04:43:10;;;;;;;1.52;0.88;;;21.10;29.40;;;;;;5026428;28;20032;-55
2021/12/09 04:45:38;;;;;;;1.05;0.77;;;21.10;29.40;;;;;;5051897;28;20668;-52
2021/12/09 04:48:06;;;;;;;1.95;0.82;;;21.00;29.30;;;;;;5022614;28;20424;-50
2021/12/09 04:50:33;;;;;;;1.90;0.90;;;21.00;29.30;;;;;;5052795;28;20051;-51
2021/12/09 04:52:59;;;;;;;1.80;0.70;;;21.10;29.30;;;;;;5041627;28;20036;-52
2021/12/09 04:55:24;;;;;;;2.25;1.10;;;21.00;29.30;;;;;;5042382;28;20053;-57
2021/12/09 04:57:50;;;;;;;1.67;1.00;;;21.00;29.30;;;;;;5046176;28;20074;-55
2021/12/09 05:00:21;;;;;;;1.40;0.90;;;21.00;29.30;;;;;;5054962;28;20045;-47
2021/12/09 05:03:08;;;;;;;2.35;0.80;;;21.00;29.30;;;;;;5053924;28;20383;-52
2021/12/09 05:05:46;;;;;;;1.27;0.80;;;21.00;29.30;;;;;;5055342;28;20057;-53
2021/12/09 05:08:17;;;;;;;1.30;0.90;;;21.00;29.30;;;;;;5054305;28;20036;-51
2021/12/09 05:10:58;;;;;;;1.45;0.73;;;21.00;29.30;;;;;;5053664;28;20512;-55
2021/12/09 05:13:26;;;;;;;1.25;0.80;;;21.00;29.30;;;;;;5049445;28;20102;-47
2021/12/09 05:15:53;;;;;;;1.80;0.73;;;21.00;29.30;;;;;;5052436;28;20029;-54
2021/12/09 05:18:21;;;;;;;3.10;1.00;;;21.00;29.40;;;;;;5036425;28;20110;-48
2021/12/09 05:20:47;;;;;;;1.33;0.85;;;21.00;29.40;;;;;;5053380;28;20067;-52
2021/12/09 05:23:14;;;;;;;1.38;0.90;;;21.00;29.40;;;;;;5051284;28;20025;-49
2021/12/09 05:25:39;;;;;;;2.00;0.88;;;21.00;29.40;;;;;;5036219;28;20132;-50
2021/12/09 05:28:07;;;;;;;2.28;1.10;;;21.00;29.40;;;;;;5037089;28;20116;-50
2021/12/09 05:32:07;;;;;;;1.58;1.00;;;21.00;29.40;;;;;;5053915;28;20451;-52
2021/12/09 05:33:27;;;;;;;1.40;1.00;;;20.90;29.40;;;;;;5054734;28;20021;-50
2021/12/09 05:35:54;;;;;;;1.27;0.75;;;20.90;29.40;;;;;;5053786;28;20033;-52
2021/12/09 05:38:20;;;;;;;2.05;1.25;;;20.90;29.40;;;;;;5055092;28;20445;-50
2021/12/09 05:40:47;;;;;;;1.77;0.80;;;20.90;29.40;;;;;;5051580;28;20133;-53
2021/12/09 05:43:13;;;;;;;2.45;1.02;;;20.90;29.40;;;;;;5017958;28;20498;-52
2021/12/09 05:45:41;;;;;;;1.42;0.80;;;20.90;29.40;;;;;;5054937;28;20033;-49
2021/12/09 05:48:07;;;;;;;1.95;1.02;;;20.90;29.40;;;;;;5053841;28;20028;-49
2021/12/09 05:50:34;;;;;;;1.63;0.77;;;20.90;29.40;;;;;;5054079;28;20515;-52
2021/12/09 05:53:00;;;;;;;1.35;0.85;;;20.90;29.40;;;;;;5043226;28;20111;-52
2021/12/09 05:55:26;;;;;;;1.67;0.95;;;20.90;29.40;;;;;;5051495;28;20073;-51
2021/12/09 05:57:52;;;;;;;1.40;0.80;;;20.90;29.40;;;;;;5044597;28;20037;-52
2021/12/09 06:00:18;;;;;;;1.92;0.90;;;20.90;29.40;;;;;;5036456;28;20038;-52
2021/12/09 06:02:43;;;;;;;1.92;0.90;;;20.90;29.40;;;;;;5041997;28;20025;-52
2021/12/09 06:05:09;;;;;;;1.38;0.73;;;20.90;29.40;;;;;;5040352;28;20017;-48
2021/12/09 06:07:35;;;;;;;1.63;0.90;;;20.90;29.40;;;;;;5057016;28;20104;-51
2021/12/09 06:10:03;;;;;;;1.55;0.80;;;20.90;29.40;;;;;;5053105;28;20102;-49
2021/12/09 06:12:29;;;;;;;2.13;1.00;;;20.90;29.50;;;;;;5051381;28;20029;-52
2021/12/09 06:14:55;;;;;;;1.98;0.90;;;20.90;29.50;;;;;;5053754;28;20344;-47
2021/12/09 06:17:21;;;;;;;1.15;0.70;;;20.90;29.50;;;;;;5051587;28;20033;-48
2021/12/09 06:19:47;;;;;;;1.02;0.90;;;20.80;29.40;;;;;;5057212;28;20431;-51
2021/12/09 06:22:13;;;;;;;1.00;0.60;;;20.90;29.50;;;;;;5058243;28;20029;-48
2021/12/09 06:24:38;;;;;;;2.35;1.00;;;20.80;29.40;;;;;;5038702;28;20424;-53
2021/12/09 06:27:06;;;;;;;1.00;0.68;;;20.80;29.40;;;;;;5049106;28;20032;-47
2021/12/09 06:29:33;;;;;;;1.25;0.88;;;20.90;29.50;;;;;;5057434;28;20108;-48
2021/12/09 06:31:59;;;;;;;2.45;0.70;;;20.80;29.40;;;;;;5038939;28;20041;-48
2021/12/09 06:34:25;;;;;;;1.33;0.80;;;20.80;29.40;;;;;;5047031;28;20087;-54
2021/12/09 06:36:59;;;;;;;1.63;0.85;;;20.80;29.40;;;;;;5057450;28;20032;-52
2021/12/09 06:39:28;;;;;;;1.95;1.15;;;20.80;29.40;;;;;;5057515;28;20072;-51
2021/12/09 06:41:55;;;;;;;2.88;1.23;;;20.80;29.40;;;;;;5057270;28;20104;-47
2021/12/09 06:44:24;;;;;;;2.22;0.80;;;20.80;29.40;;;;;;5057972;28;20483;-46
2021/12/09 06:46:58;;;;;;;1.65;0.90;;;20.80;29.40;;;;;;5057631;28;20113;-56
2021/12/09 06:49:26;;;;;;;1.52;0.80;;;20.80;29.40;;;;;;5057778;28;20147;-55
2021/12/09 06:51:54;;;;;;;1.40;0.85;;;20.80;29.40;;;;;;5057467;28;20065;-50
2021/12/09 06:54:23;;;;;;;2.55;0.93;;;20.80;29.40;;;;;;5058088;28;20025;-48
2021/12/09 06:56:51;;;;;;;2.38;1.08;;;20.80;29.40;;;;;;5057161;28;20037;-51
2021/12/09 06:59:21;;;;;;;1.98;1.10;;;20.80;29.40;;;;;;5056959;28;20083;-55
2021/12/09 07:01:51;;;;;;;3.03;0.80;;;20.80;29.40;;;;;;5057471;28;20135;-49
2021/12/09 07:04:17;;;;;;;1.63;0.82;;;20.70;29.30;;;;;;5057622;28;20029;-46
2021/12/09 07:06:43;;;;;;;2.10;0.93;;;20.80;29.40;;;;;;5057274;28;20030;-49
2021/12/09 07:09:09;;;;;;;2.65;1.08;;;20.80;29.40;;;;;;5057649;28;20057;-49
2021/12/09 07:11:36;;;;;;;2.22;1.02;;;20.80;29.30;;;;;;5039080;28;20029;-54
2021/12/09 07:14:03;;;;;;;1.38;0.80;;;20.80;29.30;;;;;;5037632;28;20036;-53
2021/12/09 07:16:29;;;;;;;1.55;0.80;;;20.80;29.30;;;;;;5047379;28;20070;-50
2021/12/09 07:18:55;;;;;;;1.92;1.00;;;20.80;29.40;;;;;;5056846;28;20028;-49
2021/12/09 07:21:21;;;;;;;2.92;1.30;;;20.80;29.40;;;;;;5053779;28;20029;-53
2021/12/09 07:23:49;;;;;;;2.03;0.80;;;20.70;29.30;;;;;;5043445;28;20044;-57
2021/12/09 07:26:15;;;;;;;3.40;1.10;;;20.80;29.90;;;;;;5057259;28;20343;-55
2021/12/09 07:28:41;;;;;;;2.13;1.00;;;20.70;29.40;;;;;;5056897;28;20021;-51
2021/12/09 07:31:08;;;;;;;1.60;1.00;;;20.80;29.50;;;;;;5057440;28;20104;-50
2021/12/09 07:33:35;;;;;;;2.13;1.10;;;20.70;29.50;;;;;;5056362;28;20087;-49
2021/12/09 07:36:01;;;;;;;1.50;1.00;;;20.80;29.60;;;;;;5056994;28;20028;-47
2021/12/09 07:38:26;;;;;;;2.83;1.17;;;20.80;29.60;;;;;;5027742;28;20036;-45
2021/12/09 07:40:52;;;;;;;1.63;0.90;;;20.80;29.60;;;;;;5055984;28;20371;-47
2021/12/09 07:43:18;;;;;;;3.10;1.30;;;20.70;29.60;;;;;;5056003;28;20024;-50
2021/12/09 07:45:44;;;;;;;2.95;1.17;;;20.80;29.60;;;;;;5056105;28;20057;-51
2021/12/09 07:48:10;;;;;;;2.00;1.10;;;20.80;29.60;;;;;;5050066;28;20115;-53
2021/12/09 07:50:38;;;;;;;3.92;1.25;;;20.80;29.60;;;;;;5048419;28;20017;-53
2021/12/09 07:53:04;;;;;;;5.13;1.33;;;20.80;29.80;;;;;;5048163;28;20324;-53
2021/12/09 07:55:30;;;;;;;2.08;1.25;;;20.90;29.90;;;;;;5047491;28;20033;-44
2021/12/09 07:57:57;;;;;;;2.92;1.15;;;21.00;30.00;;;;;;5026051;28;20047;-48
2021/12/09 08:00:31;;;;;;;2.15;0.82;;;21.10;30.00;;;;;;5037767;28;20041;-53
2021/12/09 08:02:59;;;;;;;2.80;1.10;;;21.20;30.00;;;;;;5037133;28;20033;-49
2021/12/09 08:05:26;;;;;;;2.70;1.10;;;21.30;30.00;;;;;;5036744;28;20104;-50
2021/12/09 08:07:52;;;;;;;2.63;1.38;;;21.40;30.00;;;;;;5043023;28;20021;-49
2021/12/09 08:10:19;;;;;;;3.67;1.20;;;21.50;30.00;;;;;;5039803;28;20033;-49
2021/12/09 08:12:46;;;;;;;2.22;1.35;;;21.70;30.00;;;;;;5051255;28;20071;-52
2021/12/09 08:15:13;;;;;;;3.28;1.10;;;21.80;30.00;;;;;;5037583;28;20333;-48
2021/12/09 08:20:13;;;;;;;3.05;1.40;;;22.00;29.90;;;;;;5036523;28;20175;-55
2021/12/09 08:22:39;;;;;;;1.92;1.00;;;22.10;29.90;;;;;;5018997;28;20040;-47
2021/12/09 08:25:07;;;;;;;1.80;0.90;;;22.20;29.90;;;;;;5044683;28;20428;-47
2021/12/09 08:27:34;;;;;;;1.48;0.90;;;22.30;29.90;;;;;;5071692;28;20059;-52
2021/12/09 08:30:06;;;;;;;1.45;0.88;;;22.40;29.80;;;;;;5055015;28;20326;-47
2021/12/09 08:32:33;;;;;;;2.90;1.23;;;22.50;29.70;;;;;;5055735;28;20104;-49
2021/12/09 08:34:59;;;;;;;2.10;1.00;;;22.50;29.60;;;;;;5054524;28;20021;-47
2021/12/09 08:37:25;;;;;;;1.92;1.00;;;22.60;29.50;;;;;;5055812;28;20032;-51
2021/12/09 08:39:51;;;;;;;1.95;1.02;;;22.70;29.30;;;;;;5054832;28;20120;-47
2021/12/09 08:42:17;;;;;;;1.60;0.98;;;22.80;29.20;;;;;;5055836;28;20049;-48
2021/12/09 08:44:43;;;;;;;2.47;1.17;;;22.80;29.10;;;;;;5055746;28;20032;-47
2021/12/09 08:47:10;;;;;;;3.03;1.40;;;22.90;29.10;;;;;;5055124;28;20025;-50
2021/12/09 08:49:36;;;;;;;2.95;1.20;;;23.00;29.50;;;;;;5055606;28;20025;-51
2021/12/09 08:52:03;;;;;;;1.83;1.10;;;23.00;28.90;;;;;;5055310;28;20139;-51
2021/12/09 08:54:29;;;;;;;2.88;1.20;;;23.00;28.80;;;;;;5040428;28;20730;-49
2021/12/09 08:56:58;;;;;;;2.42;1.08;;;23.10;28.80;;;;;;5040800;28;20120;-48
2021/12/09 08:59:26;;;;;;;2.05;0.90;;;23.10;28.70;;;;;;5055905;28;20056;-47
2021/12/09 09:01:52;;;;;;;2.60;1.10;;;23.20;28.70;;;;;;5047464;28;20032;-50
2021/12/09 09:04:18;;;;;;;2.95;1.27;;;23.20;28.60;;;;;;5053314;28;20021;-49
2021/12/09 09:06:56;;;;;;;2.30;1.08;;;23.30;28.60;;;;;;5049886;28;20032;-48
2021/12/09 09:09:24;;;;;;;3.30;0.80;;;23.30;28.50;;;;;;5052068;28;20079;-48
2021/12/09 09:11:50;;;;;;;2.38;1.23;;;23.30;29.00;;;;;;5035295;28;20022;-49
2021/12/09 09:14:16;;;;;;;2.38;0.98;;;23.30;28.50;;;;;;5035306;28;20029;-49
2021/12/09 09:16:43;;;;;;;1.48;1.00;;;23.40;28.50;;;;;;5040615;28;20040;-49
2021/12/09 09:19:10;;;;;;;3.08;1.10;;;23.40;28.40;;;;;;5054766;28;20028;-50
2021/12/09 09:21:36;;;;;;;2.95;1.30;;;23.50;28.40;;;;;;5057390;28;20028;-50
2021/12/09 09:24:03;;;;;;;2.17;0.80;;;23.50;28.40;;;;;;5058631;28;20337;-50
2021/12/09 09:26:30;;;;;;;2.00;1.15;;;23.50;28.30;;;;;;5054638;28;20336;-48
2021/12/09 09:28:57;;;;;;;1.70;0.90;;;23.60;28.30;;;;;;5055342;28;20340;-52
2021/12/09 09:31:27;;;;;;;2.90;1.30;;;23.60;28.30;;;;;;5054566;28;20040;-50
2021/12/09 09:33:53;;;;;;;2.00;0.90;;;23.60;28.20;;;;;;5054277;28;20035;-53
2021/12/09 09:36:19;;;;;;;1.42;1.00;;;23.70;28.20;;;;;;5053484;28;20044;-46
2021/12/09 09:38:45;;;;;;;2.20;0.98;;;23.70;28.20;;;;;;5052454;28;20025;-49
2021/12/09 09:41:15;;;;;;;2.83;1.00;;;23.70;28.20;;;;;;5058481;28;20035;-51
2021/12/09 09:46:19;;;;;;;1.35;0.80;;;23.70;28.20;;;;;;5053894;28;20431;-50
2021/12/09 09:48:46;;;;;;;1.52;0.93;;;23.70;28.10;;;;;;5033588;28;20094;-47
2021/12/09 09:51:12;;;;;;;1.80;1.00;;;23.70;28.10;;;;;;5038151;28;20017;-47
2021/12/09 09:53:41;;;;;;;1.58;0.80;;;23.70;28.20;;;;;;5049535;28;20092;-50
2021/12/09 09:56:18;;;;;;;1.83;0.75;;;23.70;28.20;;;;;;5050638;28;20100;-55
2021/12/09 09:58:50;;;;;;;1.75;1.00;;;23.70;28.20;;;;;;5042861;28;20064;-48
2021/12/09 10:01:17;;;;;;;2.03;0.90;;;23.60;28.10;;;;;;5037651;28;20017;-52
2021/12/09 10:03:47;;;;;;;1.83;0.95;;;23.60;28.20;;;;;;5042506;28;20336;-48
2021/12/09 10:06:16;;;;;;;1.33;0.90;;;23.60;28.20;;;;;;5052185;28;20104;-54
2021/12/09 10:08:43;;;;;;;1.95;0.82;;;23.50;28.20;;;;;;5053142;28;20017;-53
2021/12/09 10:11:09;;;;;;;1.50;0.80;;;23.50;28.30;;;;;;5051840;28;20036;-53
2021/12/09 10:13:40;;;;;;;1.88;0.93;;;23.50;28.40;;;;;;5047008;28;20032;-50
2021/12/09 10:16:20;;;;;;;1.92;0.90;;;23.50;28.40;;;;;;5046855;28;20025;-54
2021/12/09 10:18:50;;;;;;;2.20;1.20;;;23.50;28.50;;;;;;5048779;28;20091;-51
2021/12/09 10:21:28;;;;;;;1.88;0.88;;;23.40;28.50;;;;;;5040107;28;20441;-53
2021/12/09 10:24:05;;;;;;;1.58;1.00;;;23.40;28.60;;;;;;5036887;28;20329;-47
2021/12/09 10:26:51;;;;;;;1.92;0.90;;;23.40;28.60;;;;;;5042116;28;20037;-48
2021/12/09 10:29:34;;;;;;;2.22;0.95;;;23.40;28.60;;;;;;5046190;28;20032;-50
2021/12/09 10:32:04;;;;;;;1.95;0.80;;;23.40;28.60;;;;;;5035285;28;20028;-53
2021/12/09 10:34:40;;;;;;;1.65;0.88;;;23.40;28.70;;;;;;5039077;28;20562;-56
2021/12/09 10:37:10;;;;;;;1.90;0.98;;;23.40;28.70;;;;;;5022355;28;20075;-53
2021/12/09 10:39:38;;;;;;;1.45;0.82;;;23.40;28.70;;;;;;5051944;28;20036;-46
2021/12/09 10:42:24;;;;;;;1.70;1.15;;;23.40;28.70;;;;;;5047400;28;20041;-52
2021/12/09 10:44:53;;;;;;;1.27;0.82;;;23.50;28.90;;;;;;5044594;28;20451;-45
2021/12/09 10:47:34;;;;;;;2.35;1.10;;;23.60;28.90;;;;;;5039377;28;20401;-53
2021/12/09 10:50:10;;;;;;;1.38;0.80;;;23.60;28.90;;;;;;5048687;28;20060;-55
2021/12/09 10:52:44;;;;;;;3.90;0.90;;;23.50;28.90;;;;;;5055134;28;20029;-57
2021/12/09 10:55:23;;;;;;;1.40;0.70;;;23.60;28.90;;;;;;5038159;28;20076;-57
2021/12/09 10:58:00;;;;;;;1.92;0.85;;;23.50;28.80;;;;;;5020070;28;20118;-51
2021/12/09 11:00:35;;;;;;;1.90;0.93;;;23.60;28.80;;;;;;5073369;28;20047;-53
2021/12/09 11:03:21;;;;;;;0.98;0.70;;;23.50;28.80;;;;;;5076717;28;20031;-50
2021/12/09 11:06:09;;;;;;;1.50;0.85;;;23.50;28.70;;;;;;5067452;28;20039;-54
2021/12/09 11:08:44;;;;;;;1.77;0.73;;;23.50;28.70;;;;;;5053862;28;20029;-58
2021/12/09 11:11:13;;;;;;;1.45;0.95;;;23.50;28.70;;;;;;5049921;28;20030;-57
2021/12/09 11:13:49;;;;;;;1.60;0.80;;;23.50;28.70;;;;;;5053016;28;20020;-51
2021/12/09 11:16:26;;;;;;;1.88;0.82;;;23.50;28.70;;;;;;5059013;28;20328;-53
2021/12/09 11:19:10;;;;;;;1.60;0.90;;;23.40;29.20;;;;;;5069712;28;20092;-55
2021/12/09 11:21:42;;;;;;;1.77;0.88;;;23.40;28.70;;;;;;5044285;28;20440;-52
2021/12/09 11:24:15;;;;;;;1.98;0.98;;;23.40;28.70;;;;;;5037091;28;20049;-55
2021/12/09 11:26:49;;;;;;;2.80;1.05;;;23.40;28.70;;;;;;5037195;28;20095;-55
2021/12/09 11:29:22;;;;;;;1.67;0.90;;;23.40;28.70;;;;;;5037447;28;20061;-51
2021/12/09 11:32:02;;;;;;;2.75;1.10;;;23.30;28.70;;;;;;5048738;28;20099;-55
2021/12/09 11:35:04;;;;;;;3.05;0.93;;;23.30;28.70;;;;;;5046767;28;20036;-51
2021/12/09 11:37:40;;;;;;;2.08;1.10;;;23.30;28.70;;;;;;5042059;28;20025;-48
2021/12/09 11:40:21;;;;;;;2.90;0.85;;;23.30;29.00;;;;;;5040275;28;20130;-47
2021/12/09 11:42:54;;;;;;;1.35;0.90;;;23.20;29.10;;;;;;5045459;28;20012;-53
2021/12/09 11:45:25;;;;;;;1.55;1.08;;;23.20;29.20;;;;;;5050270;28;20021;-53
2021/12/09 11:47:53;;;;;;;2.08;1.00;;;23.20;29.30;;;;;;5051334;28;20048;-53
2021/12/09 11:50:22;;;;;;;2.88;1.27;;;23.20;29.30;;;;;;5048378;28;20024;-50
2021/12/09 11:52:53;;;;;;;2.30;0.88;;;23.20;29.40;;;;;;5039330;28;20091;-54
2021/12/09 11:55:26;;;;;;;3.22;1.10;;;23.20;29.40;;;;;;5050612;28;20044;-55
2021/12/09 11:57:58;;;;;;;2.65;0.90;;;23.20;29.40;;;;;;5033561;28;20116;-56
2021/12/09 12:07:08;;;;;;;2.95;1.30;;;23.20;29.30;;;;;;5047642;28;20495;-52
2021/12/09 12:19:03;;;;;;;3.38;1.10;;;23.10;29.40;;;;;;5050967;28;20024;-55
2021/12/09 12:40:36;;;;;;;1.85;0.80;;;23.10;29.40;;;;;;5036132;28;20032;-54
2021/12/09 12:43:10;;;;;;;2.05;0.93;;;23.10;29.40;;;;;;5035469;28;20029;-58
2021/12/09 12:51:25;;;;;;;1.45;1.02;;;23.10;29.40;;;;;;5035301;28;20083;-53
2021/12/09 12:57:17;;;;;;;1.77;0.90;;;23.00;29.50;;;;;;5022195;28;20324;-52
2021/12/09 12:59:59;;;;;;;2.35;1.08;;;23.10;29.60;;;;;;5044320;28;20029;-56
2021/12/09 13:05:21;;;;;;;3.45;0.80;;;23.00;29.50;;;;;;5034451;28;20041;-50
2021/12/09 13:08:10;;;;;;;1.63;1.00;;;23.00;29.40;;;;;;5036037;28;20018;-54
2021/12/09 13:13:21;;;;;;;1.10;0.90;;;23.00;29.50;;;;;;5046297;28;20428;-49
2021/12/09 13:16:06;;;;;;;3.80;1.23;;;23.00;29.50;;;;;;5045586;28;20037;-54
2021/12/09 13:18:44;;;;;;;1.40;0.80;;;23.10;29.60;;;;;;5038524;28;20325;-56
2021/12/09 13:21:47;;;;;;;2.10;1.02;;;23.00;29.50;;;;;;5049826;28;20029;-52
2021/12/09 13:24:21;;;;;;;1.80;1.00;;;23.10;29.60;;;;;;5034748;28;20108;-52
2021/12/09 13:30:47;;;;;;;1.67;0.93;;;23.00;29.60;;;;;;5021773;28;20449;-47
2021/12/09 13:50:45;;;;;;;1.52;0.90;;;23.10;30.10;;;;;;5052946;28;20048;-54
2021/12/09 13:55:29;;;;;;;1.33;0.82;;;23.20;30.10;;;;;;5048656;28;20025;-55
2021/12/09 13:58:04;;;;;;;2.25;0.90;;;23.20;30.10;;;;;;5043948;28;20461;-58
2021/12/09 14:00:37;;;;;;;1.23;1.10;;;23.20;30.10;;;;;;5048686;28;20132;-58
2021/12/09 14:03:12;;;;;;;1.50;0.90;;;23.30;30.20;;;;;;5044096;28;20025;-53
2021/12/09 14:05:52;;;;;;;0.93;0.60;;;23.40;30.20;;;;;;5045209;28;20036;-50
2021/12/09 14:08:30;;;;;;;1.83;0.90;;;23.40;30.80;;;;;;5046457;28;20028;-53
2021/12/09 14:11:03;;;;;;;1.17;0.80;;;23.50;30.10;;;;;;5050324;28;20100;-51
2021/12/09 14:13:33;;;;;;;2.05;1.10;;;23.50;30.10;;;;;;5030312;28;20018;-48
2021/12/09 14:16:08;;;;;;;1.60;1.00;;;23.60;30.10;;;;;;5049169;28;20092;-48